Hleb Ihnatovich

チーフスカウト - Molodechno
4 12月 2028
月曜日
処理

性格

適応力 (2) 野心 (10) 物議 (12) 忠誠心 (12) プレッシャー耐性 (6) プロ意識 (1) スポーツマンシップ (1) 気質 (16)

プロフィール

指導スタイル 民主型
ライセンス 大陸B級
決断力 9
人材管理 9
モチベーション 9
規律 9
仕事満足度
100%
疲労度
0%
役職 チーフスカウト
給与 42.0K 週給
契約 14.03.2030

パフォーマンス

態度 良い
トレーニング効果
24%
選手育成
15%
怪我予防
15%
戦術実行
15%

最近の出来事

補強会議に出席 たった今
補強会議に出席 たった今
補強会議に出席 たった今
選手を視察 たった今
補強会議に出席 7日前
補強会議に出席 7日前
選手を視察 7日前
選手を視察 7日前

監視中

100
選手 クラブ 状態 能力 自信 視察済み 最終確認 最新投票
Juan Mendoza Güemes アクティブ 112 / 114 40% 1 01.12.2028 -
Kabiru Abdullahi Barau アクティブ 77 / 106 40% 1 01.12.2028 -
Joseph Arumala Ikorodu City アクティブ 75 / 82 40% 2 29.11.2028 -
Nicolás Medina Atlanta アクティブ 122 / 113 40% 1 29.11.2028 -
Lisandro Cabrera Maipú アクティブ 133 / 115 40% 2 28.11.2028 -
Denis M. Kovalevich Dinamo Brest アクティブ 97 / 91 40% 1 28.11.2028 -
Agustín Gallo Tristán Suárez アクティブ 132 / 101 40% 2 26.11.2028 -
Clemente Montes Santiago Wanderers アクティブ 120 / 128 40% 3 26.11.2028 -
Kirill Tsepenkov Dnepr Mogilev アクティブ 94 / 105 40% 3 23.11.2028 -
Julián Brea Cobresal アクティブ 96 / 99 40% 2 23.11.2028 -
Ibrahim Yahaya Barau アクティブ 105 / 84 40% 2 19.11.2028 -
Facundo Krüger Temperley アクティブ 136 / 113 40% 3 19.11.2028 -
Mauro Valiente Estudiantes アクティブ 112 / 108 40% 2 18.11.2028 -
Martin Sekulić Ural アクティブ 128 / 119 40% 1 18.11.2028 -
Daouda Natama Minsk アクティブ 84 / 88 40% 2 17.11.2028 -
Tomás Blanco Estudiantes アクティブ 92 / 99 40% 2 17.11.2028 -
Franco Ayunta Temperley アクティブ 111 / 112 40% 2 16.11.2028 -
Maxim Kravtsov Neman アクティブ 105 / 102 40% 1 16.11.2028 情報不足
Ruslan Gogniev Lida アクティブ 67 / 76 40% 1 15.11.2028 -
Vladislav Lozhkin Dinamo Brest アクティブ 112 / 92 40% 1 13.11.2028 -
Santiago Rodríguez Gimnasia y Esgrima アクティブ 101 / 120 40% 1 13.11.2028 -
Dmitriy Matyash Arsenal Dzerzhinsk アクティブ 85 / 78 40% 1 12.11.2028 -
Sebastián Cocimano Nueva Chicago アクティブ 97 / 127 40% 1 11.11.2028 -
Sebastián Marfort Racing アクティブ 103 / 121 40% 2 10.11.2028 -
José Barreto Quilmes アクティブ 129 / 111 40% 2 08.11.2028 -
Lucas Pedraza Defensores Unidos アクティブ 123 / 98 40% 1 08.11.2028 -
Daniel Barrea Godoy Cruz アクティブ 126 / 119 40% 6 07.11.2028 -
Abubakar Bonni Enyimba アクティブ 85 / 92 40% 1 07.11.2028 -
Matías Sosa Arsenal アクティブ 133 / 110 40% 2 05.11.2028 -
Tiago Taobas Central Norte アクティブ 75 / 82 40% 1 05.11.2028 -
Dylan Cabral Arsenal アクティブ 112 / 109 40% 2 30.10.2028 -
Gianluca Pugliese Güemes アクティブ 100 / 112 40% 2 28.10.2028 -
Juan David Rueda Alianza Petrolera アクティブ 132 / 108 40% 3 25.10.2028 -
Marco Miori Alvarado アクティブ 115 / 106 40% 3 23.10.2028 -
Steven Alfred Torpedo-BelAZ アクティブ 115 / 96 40% 1 22.10.2028 -
Gonzalo Flores Almirante Brown アクティブ 112 / 104 40% 1 20.10.2028 -
Agustín Dávila Cerro Largo アクティブ 77 / 96 40% 2 18.10.2028 -
Gustavo Viera Cerro Largo アクティブ 120 / 113 40% 1 15.10.2028 -
Marcos Echeverría Temperley アクティブ 125 / 113 40% 1 15.10.2028 -
Antony Alonso Deportivo Riestra アクティブ 142 / 116 40% 1 13.10.2028 -
Chimobi Igwilo Rangers International アクティブ 111 / 83 40% 3 11.10.2028 -
David Maguicha Atlanta アクティブ 72 / 101 40% 1 10.10.2028 -
Genaro Rossi San Martín SJ アクティブ 95 / 108 40% 1 08.10.2028 -
Bruno Miño Almirante Brown アクティブ 113 / 111 40% 1 04.10.2028 -
Luis Sandoval Independiente Medellin アクティブ 104 / 133 40% 1 04.10.2028 -
Augusto Berrondo Tristán Suárez アクティブ 91 / 106 40% 1 02.10.2028 -
Luca Franco Arsenal 交渉中 96 / 98 40% 2 04.09.2028 -
Ganiyu Wasiu Shooting Stars 交渉中 96 / 98 40% 1 07.08.2028 -
Giacomo Zecca Torres アクティブ 90 / 103 40% 1 31.07.2028 -
Andrey Mazurin Yenisey アクティブ 112 / 100 40% 1 14.07.2028 -
Bojan Roganović Torpedo Moscow アクティブ 109 / 120 40% 1 14.07.2028 -
Timur Akmurzin Dinamo Bryansk 交渉中 88 / 95 40% 1 20.06.2028 -
Alessio Cragno Südtirol アクティブ 155 / 125 40% 1 20.06.2028 -
Louis Flower Crawley Town アクティブ 107 / 107 40% 1 14.06.2028 -
Dmitry Kuptsov Spartak Tambov アクティブ 79 / 83 40% 1 14.06.2028 -
Daniil Agureev Amkar アクティブ 106 / 89 40% 2 07.02.2028 -
Matija Popović Fakel アクティブ 116 / 122 40% 2 07.02.2028 -
Ilja Porokhov Shinnik アクティブ 80 / 90 40% 1 24.01.2028 -
Alexandre Jesus Orenburg アクティブ 121 / 110 40% 1 24.01.2028 -
Axel Gnapi Dable Fakel アクティブ 97 / 92 40% 2 23.01.2028 -
Gamid Agalarov Orenburg アクティブ 114 / 121 40% 1 23.01.2028 -
Artur Kozyrev Volna アクティブ 92 / 99 40% 3 22.01.2028 -
Danil Krugovoy Orenburg アクティブ 135 / 125 40% 1 22.01.2028 -
Mikhail Ignatov Sochi アクティブ 113 / 122 40% 2 21.01.2028 -
François Kamano Sochi アクティブ 131 / 119 40% 1 21.01.2028 -
Surkhaikhan Abdullaev KAMAZ アクティブ 106 / 88 40% 2 20.01.2028 -
Ilja Rubtsov Chaika アクティブ 84 / 98 40% 1 20.01.2028 -
Sergey Volkov Zenit アクティブ 120 / 114 40% 2 17.01.2028 -
Kirill Danilin Ural アクティブ 114 / 118 40% 1 16.01.2028 -
Franco Bustamante Almagro アクティブ 122 / 117 40% 2 15.01.2028 -
Alfred Mazurich Lida アクティブ 90 / 86 40% 1 12.01.2028 -
Vyacheslav Grulev Nizhniy Novgorod アクティブ 111 / 110 40% 4 10.01.2028 -
Ilja Safronov Rotor アクティブ 103 / 106 40% 2 10.01.2028 -
Ilja Berkovskiy Torpedo Moscow アクティブ 105 / 116 40% 1 10.01.2028 -
Kirill Bozhenov Sokol アクティブ 98 / 96 40% 1 08.01.2028 -
Danil Karpov KAMAZ アクティブ 107 / 100 40% 1 06.01.2028 -
Kamran Aliev SKA Khabarovsk アクティブ 112 / 98 40% 1 03.01.2028 -
Maxim Kutovoy Salyut アクティブ 104 / 83 40% 1 30.12.2027 -
Mikhail Gainov Dinamo Stavropol アクティブ 81 / 84 40% 2 27.12.2027 -
Jacobo Alcalde SKA Khabarovsk アクティブ 86 / 94 40% 1 27.12.2027 -
Juan Sebastián Herrera Deportivo La Guaira アクティブ 117 / 128 40% 1 23.12.2027 -
Razhab Magomedov Dinamo Makhachkala アクティブ 124 / 110 40% 1 22.12.2027 -
Timur Suleimanov Nizhniy Novgorod アクティブ 109 / 116 40% 1 17.12.2027 -
Vladimir Khubulov Dinamo Makhachkala アクティブ 114 / 118 40% 1 14.12.2027 -
Daniil Motorin Rubin アクティブ 88 / 101 40% 1 06.12.2027 -
Evgeniy Elezarenko Osipovichi アクティブ 65 / 72 37% 1 19.06.2027 情報不足
Daniil Kondrakov KDV Tomsk アクティブ 96 / 91 40% 1 23.01.2027 -
Gevork Sarkisyan Saturn アクティブ 94 / 83 40% 1 22.01.2027 -
Alexandr Olenev Nart アクティブ 79 / 89 40% 1 22.01.2027 -
Rashid Magomedov Neftekhimik アクティブ 90 / 90 40% 2 18.01.2027 -
Migran Ageyan Ufa アクティブ 90 / 103 40% 1 14.01.2027 -
Nikita Simdyankin KDV Tomsk アクティブ 96 / 89 40% 1 10.01.2027 -
Vladislav Morozov Volgar アクティブ 100 / 78 40% 1 10.01.2027 -
Ruslan Apekov Torpedo Moscow アクティブ 120 / 93 40% 1 09.01.2027 -
Alexandr Saplinov Volga アクティブ 115 / 95 40% 1 08.01.2027 -
Vladislav Yakovlev Volga アクティブ 104 / 87 40% 1 04.01.2027 -
Gonzalo Viotti Racing アクティブ 99 / 74 40% 1 07.09.2026 -
Anthony Olusanya Kalmar FF アクティブ 98 / 86 40% 1 31.08.2026 -
Juan Otero Gijón アクティブ 139 / 145 40% 1 01.08.2026 -
Mihhail Orlov Nomme Kalju アクティブ 71 / 93 40% 1 01.08.2026 -